Time;durP1;ratioP1;P1;durP2;ratioP2;P2;SDS_P1;SDS_P2;PMS_P1;PMS_P2;Temp;Humidity;BMP_temperature;BMP_pressure;BME280_temperature;BME280_humidity;BME280_pressure;Samples;Min_cycle;Max_cycle;Signal;HPM_P1;HPM_P2
2021/08/05 00:00:30;;;;;;;3.20;1.38;;;18.80;85.60;;;;;;5054123;28;20027;-75
2021/08/05 00:02:56;;;;;;;3.55;1.27;;;18.80;85.70;;;;;;5053988;28;20049;-77
2021/08/05 00:05:21;;;;;;;;;;;18.80;85.70;;;;;;5053244;28;20041;-76
2021/08/05 00:07:47;;;;;;;3.45;1.50;;;18.70;85.40;;;;;;5054118;28;19931;-75
2021/08/05 00:10:13;;;;;;;4.22;1.48;;;18.70;85.50;;;;;;5052852;28;20033;-75
2021/08/05 00:12:38;;;;;;;2.95;1.25;;;18.60;85.60;;;;;;5053813;28;20094;-77
2021/08/05 00:15:04;;;;;;;5.53;1.90;;;18.60;85.60;;;;;;5052590;28;20029;-77
2021/08/05 00:17:30;;;;;;;;;;;18.60;85.60;;;;;;5052979;28;20029;-76
2021/08/05 00:19:56;;;;;;;4.22;1.70;;;18.50;85.60;;;;;;5053865;28;19905;-76
2021/08/05 00:22:21;;;;;;;3.85;1.35;;;18.40;85.50;;;;;;5053730;28;20044;-76
2021/08/05 00:24:47;;;;;;;4.05;1.45;;;18.40;85.80;;;;;;5053631;28;20041;-76
2021/08/05 00:27:13;;;;;;;4.60;1.75;;;18.30;86.00;;;;;;5053738;28;20499;-77
2021/08/05 00:29:38;;;;;;;4.07;1.70;;;18.30;86.20;;;;;;5053635;28;20044;-78
2021/08/05 00:32:04;;;;;;;5.20;1.60;;;18.30;86.30;;;;;;5052257;28;20476;-77
2021/08/05 00:34:30;;;;;;;3.50;1.48;;;18.30;86.30;;;;;;5035647;28;20041;-77
2021/08/05 00:36:56;;;;;;;3.35;1.60;;;18.30;86.50;;;;;;5052461;28;20032;-75
2021/08/05 00:39:21;;;;;;;5.20;1.50;;;18.30;86.50;;;;;;5052165;28;20056;-76
2021/08/05 00:41:47;;;;;;;3.28;1.30;;;18.20;86.60;;;;;;5052206;28;20470;-75
2021/08/05 00:44:13;;;;;;;3.55;1.60;;;18.20;86.80;;;;;;5052346;28;20029;-76
2021/08/05 00:46:38;;;;;;;5.10;2.17;;;18.20;86.80;;;;;;5052003;28;20033;-76
2021/08/05 00:49:04;;;;;;;3.42;1.52;;;18.20;86.90;;;;;;5053007;28;20151;-76
2021/08/05 00:51:30;;;;;;;3.63;1.50;;;18.10;87.00;;;;;;5051789;28;20033;-77
2021/08/05 00:53:56;;;;;;;3.72;1.55;;;18.10;87.20;;;;;;5053122;28;20044;-76
2021/08/05 00:56:21;;;;;;;6.07;1.58;;;18.10;87.20;;;;;;5035282;28;20083;-75
2021/08/05 00:58:47;;;;;;;5.03;1.90;;;18.10;87.30;;;;;;5051818;28;20033;-75
2021/08/05 01:01:19;;;;;;;4.68;1.80;;;18.10;87.40;;;;;;5051608;28;20373;-75
2021/08/05 01:03:48;;;;;;;4.13;1.65;;;18.20;87.60;;;;;;5052927;28;20096;-75
2021/08/05 01:06:51;;;;;;;3.80;2.00;;;18.20;87.60;;;;;;5052922;28;20037;-75
2021/08/05 01:09:29;;;;;;;4.28;1.70;;;18.20;87.70;;;;;;5051568;28;20028;-76
2021/08/05 01:12:05;;;;;;;4.97;2.00;;;18.20;87.40;;;;;;5052781;28;20503;-77
2021/08/05 01:14:36;;;;;;;4.35;1.83;;;18.20;87.50;;;;;;5051418;28;20033;-76
2021/08/05 01:17:04;;;;;;;4.70;2.05;;;18.30;87.50;;;;;;5052852;28;20033;-76
2021/08/05 01:19:51;;;;;;;5.40;1.85;;;18.20;87.60;;;;;;5051585;28;20033;-75
2021/08/05 01:22:30;;;;;;;4.13;1.75;;;18.20;87.90;;;;;;5052605;28;20025;-76
2021/08/05 01:25:07;;;;;;;4.28;2.00;;;18.20;88.00;;;;;;5052579;28;20041;-75
2021/08/05 01:27:35;;;;;;;3.90;1.70;;;18.20;88.00;;;;;;5052662;28;20028;-77
2021/08/05 01:30:01;;;;;;;5.38;1.92;;;18.30;87.90;;;;;;5051308;28;20025;-75
2021/08/05 01:32:27;;;;;;;5.30;1.88;;;18.20;87.80;;;;;;5052326;28;20124;-76
2021/08/05 01:34:55;;;;;;;3.92;1.90;;;18.20;87.90;;;;;;5051145;28;20082;-77
2021/08/05 01:37:22;;;;;;;4.28;1.98;;;18.10;88.00;;;;;;5051060;28;20396;-76
2021/08/05 01:39:48;;;;;;;3.95;1.63;;;18.10;88.20;;;;;;5052406;28;20028;-78
2021/08/05 01:42:18;;;;;;;4.95;1.98;;;18.10;88.20;;;;;;5051001;28;20037;-78
2021/08/05 01:44:45;;;;;;;4.97;1.70;;;18.10;88.10;;;;;;5051008;28;20312;-75
2021/08/05 01:47:13;;;;;;;4.50;1.48;;;18.10;87.90;;;;;;5050812;28;20032;-75
2021/08/05 01:49:40;;;;;;;5.57;1.70;;;18.10;87.80;;;;;;5052086;28;20033;-78
2021/08/05 01:52:07;;;;;;;5.05;1.77;;;18.00;87.60;;;;;;5051997;28;20032;-75
2021/08/05 01:54:33;;;;;;;6.50;1.77;;;18.00;87.50;;;;;;5034110;28;20030;-76
2021/08/05 01:56:59;;;;;;;6.20;1.85;;;18.00;87.20;;;;;;5050731;28;20036;-74
2021/08/05 01:59:25;;;;;;;3.25;1.52;;;18.00;86.80;;;;;;5050123;28;20388;-75
2021/08/05 02:01:50;;;;;;;3.70;1.40;;;18.00;86.70;;;;;;5033863;28;20036;-74
2021/08/05 02:04:37;;;;;;;4.75;1.60;;;18.00;86.80;;;;;;5050476;28;20053;-76
2021/08/05 02:07:11;;;;;;;5.15;1.67;;;17.90;86.70;;;;;;5051912;28;20025;-74
2021/08/05 02:09:48;;;;;;;6.13;1.70;;;17.90;86.80;;;;;;5051853;28;20514;-76
2021/08/05 02:12:14;;;;;;;5.47;1.50;;;17.90;86.80;;;;;;5051604;28;20033;-76
2021/08/05 02:14:40;;;;;;;3.72;1.42;;;17.90;86.80;;;;;;5051570;28;20036;-75
2021/08/05 02:17:08;;;;;;;6.25;1.75;;;17.90;86.80;;;;;;5050333;28;20658;-76
2021/08/05 02:19:35;;;;;;;3.97;1.65;;;17.90;86.70;;;;;;5051578;28;20113;-75
2021/08/05 02:22:01;;;;;;;4.00;1.67;;;17.90;86.70;;;;;;5033893;28;20029;-75
2021/08/05 02:24:30;;;;;;;3.15;1.27;;;17.90;86.70;;;;;;5050305;28;20383;-76
2021/08/05 02:27:01;;;;;;;3.60;1.55;;;17.80;86.60;;;;;;5051387;28;20044;-76
2021/08/05 02:29:28;;;;;;;4.93;1.70;;;17.80;86.70;;;;;;5051529;28;20033;-76
2021/08/05 02:31:55;;;;;;;4.55;1.85;;;17.80;86.80;;;;;;5049997;28;20442;-76
2021/08/05 02:34:22;;;;;;;4.22;2.05;;;17.80;86.70;;;;;;5033566;28;20028;-76
2021/08/05 02:36:48;;;;;;;4.75;1.63;;;17.80;86.70;;;;;;5051331;28;20025;-76
2021/08/05 02:39:14;;;;;;;4.97;1.85;;;17.80;86.80;;;;;;5051377;28;20395;-76
2021/08/05 02:41:40;;;;;;;;;;;17.80;86.80;;;;;;5050423;28;20025;-75
2021/08/05 02:44:10;;;;;;;3.45;1.63;;;17.80;86.80;;;;;;5049969;28;19913;-76
2021/08/05 02:46:36;;;;;;;4.13;1.60;;;17.80;86.50;;;;;;5051228;28;20506;-75
2021/08/05 02:49:04;;;;;;;4.65;1.58;;;17.80;86.50;;;;;;5049861;28;20504;-77
2021/08/05 02:51:30;;;;;;;6.15;1.83;;;17.80;86.60;;;;;;5051192;28;20029;-77
2021/08/05 02:53:57;;;;;;;5.75;1.85;;;17.80;86.60;;;;;;5049695;28;20398;-75
2021/08/05 02:56:23;;;;;;;4.85;1.60;;;17.80;86.60;;;;;;5051137;28;20052;-76
2021/08/05 02:58:49;;;;;;;3.40;1.55;;;17.80;86.50;;;;;;5049893;28;20025;-76
2021/08/05 03:01:15;;;;;;;;;;;17.80;86.30;;;;;;5051371;28;20021;-75
2021/08/05 03:03:41;;;;;;;4.03;1.40;;;17.80;86.30;;;;;;5048709;28;20443;-75
2021/08/05 03:06:08;;;;;;;3.13;1.17;;;17.80;86.20;;;;;;5050940;28;20037;-75
2021/08/05 03:08:40;;;;;;;5.95;1.60;;;17.80;86.20;;;;;;5051007;28;20033;-77
2021/08/05 03:11:06;;;;;;;5.35;1.50;;;17.80;86.20;;;;;;5051327;28;20025;-77
2021/08/05 03:13:32;;;;;;;6.05;1.60;;;17.80;86.00;;;;;;5054976;28;20036;-76
2021/08/05 03:15:58;;;;;;;6.68;1.38;;;17.80;85.90;;;;;;5053812;28;20368;-76
2021/08/05 03:18:23;;;;;;;4.03;1.60;;;17.80;85.80;;;;;;5055028;28;20025;-76
2021/08/05 03:20:49;;;;;;;3.42;1.20;;;17.80;85.90;;;;;;5053554;28;20036;-77
2021/08/05 03:23:15;;;;;;;3.70;1.38;;;17.80;85.90;;;;;;5054984;28;20440;-76
2021/08/05 03:25:40;;;;;;;6.22;1.50;;;17.90;86.00;;;;;;5054862;28;20106;-77
2021/08/05 03:28:06;;;;;;;4.45;1.25;;;17.90;86.10;;;;;;5053609;28;20044;-76
2021/08/05 03:30:32;;;;;;;3.55;1.10;;;17.80;86.20;;;;;;5053513;28;20041;-77
2021/08/05 03:33:00;;;;;;;3.60;1.45;;;17.80;86.50;;;;;;5054742;28;20032;-77
2021/08/05 03:35:27;;;;;;;4.63;1.35;;;17.80;86.50;;;;;;5053352;28;20035;-77
2021/08/05 03:37:52;;;;;;;4.43;1.30;;;17.70;86.40;;;;;;5054612;28;20052;-77
2021/08/05 03:40:18;;;;;;;4.00;1.55;;;17.70;86.50;;;;;;5054513;28;20475;-76
2021/08/05 03:42:44;;;;;;;3.35;1.40;;;17.70;86.40;;;;;;5053465;28;20091;-77
2021/08/05 03:45:10;;;;;;;3.65;1.25;;;17.70;86.30;;;;;;5054601;28;20037;-77
2021/08/05 03:47:36;;;;;;;4.00;1.27;;;17.70;86.40;;;;;;5054568;28;20108;-78
2021/08/05 03:50:03;;;;;;;3.95;1.45;;;17.80;86.40;;;;;;5053060;28;20035;-76
2021/08/05 03:52:29;;;;;;;4.18;1.38;;;17.70;86.30;;;;;;5054220;28;20256;-76
2021/08/05 03:54:54;;;;;;;3.92;1.85;;;17.50;86.90;;;;;;5054218;28;20040;-75
2021/08/05 03:57:20;;;;;;;4.00;1.70;;;17.30;87.70;;;;;;5053086;28;20043;-76
2021/08/05 03:59:45;;;;;;;5.40;1.75;;;17.00;88.70;;;;;;5052990;28;20033;-75
2021/08/05 04:02:11;;;;;;;5.72;1.77;;;16.80;89.80;;;;;;5052777;28;20025;-74
2021/08/05 04:04:37;;;;;;;5.22;1.90;;;16.60;90.40;;;;;;5033866;28;20139;-75
2021/08/05 04:07:05;;;;;;;6.03;1.85;;;16.50;90.80;;;;;;5054105;28;20040;-77
2021/08/05 04:09:31;;;;;;;5.97;1.95;;;16.40;91.30;;;;;;5054044;28;20060;-76
2021/08/05 04:11:56;;;;;;;7.47;1.95;;;16.30;91.80;;;;;;5053857;28;20064;-77
2021/08/05 04:14:22;;;;;;;6.60;1.92;;;16.30;92.20;;;;;;5053861;28;20033;-76
2021/08/05 04:16:48;;;;;;;5.30;2.20;;;16.30;92.40;;;;;;5053946;28;20391;-75
2021/08/05 04:19:13;;;;;;;6.68;1.85;;;16.40;92.60;;;;;;5053938;28;20033;-76
2021/08/05 04:21:39;;;;;;;7.15;2.10;;;16.40;92.70;;;;;;5053666;28;20411;-76
2021/08/05 04:24:05;;;;;;;8.10;3.08;;;16.40;92.80;;;;;;5053421;28;20044;-75
2021/08/05 04:26:31;;;;;;;6.40;1.98;;;16.40;92.90;;;;;;5053670;28;20044;-77
2021/08/05 04:28:56;;;;;;;5.63;1.90;;;16.40;93.00;;;;;;5052488;28;20043;-74
2021/08/05 04:31:22;;;;;;;3.85;1.65;;;16.50;93.10;;;;;;5053666;28;20479;-77
2021/08/05 04:33:48;;;;;;;6.40;1.90;;;16.50;93.10;;;;;;5053538;28;20036;-75
2021/08/05 04:36:14;;;;;;;5.50;2.03;;;16.50;93.10;;;;;;5052100;28;20033;-76
2021/08/05 04:38:39;;;;;;;6.20;2.00;;;16.50;93.20;;;;;;5053463;28;20091;-77
2021/08/05 04:41:05;;;;;;;7.00;1.90;;;16.60;93.30;;;;;;5052030;28;20110;-76
2021/08/05 04:43:31;;;;;;;6.68;1.90;;;16.60;93.30;;;;;;5053501;28;20040;-77
2021/08/05 04:45:56;;;;;;;6.68;2.20;;;16.70;93.30;;;;;;5052199;28;20078;-76
2021/08/05 04:48:27;;;;;;;6.00;1.67;;;16.70;93.30;;;;;;5053282;28;20484;-75
2021/08/05 04:50:53;;;;;;;5.22;2.00;;;16.70;93.30;;;;;;5052033;28;20049;-76
2021/08/05 04:53:19;;;;;;;;;;;16.60;93.30;;;;;;5053707;28;20384;-75
2021/08/05 04:55:45;;;;;;;7.43;1.98;;;16.70;93.20;;;;;;5053125;28;19908;-75
2021/08/05 04:58:11;;;;;;;3.72;1.67;;;16.70;93.20;;;;;;5053074;28;20051;-76
2021/08/05 05:00:40;;;;;;;;;;;16.70;93.20;;;;;;5053580;28;20119;-75
2021/08/05 05:03:07;;;;;;;4.10;1.35;;;16.80;93.10;;;;;;5052826;28;20015;-75
2021/08/05 05:05:34;;;;;;;4.32;1.40;;;16.80;92.90;;;;;;5051687;28;20061;-76
2021/08/05 05:08:21;;;;;;;2.95;1.27;;;16.80;92.80;;;;;;5053017;28;20060;-76
2021/08/05 05:10:47;;;;;;;;;;;16.80;92.90;;;;;;5053521;28;20029;-76
2021/08/05 05:13:14;;;;;;;6.38;1.88;;;16.80;92.80;;;;;;5052873;28;19909;-74
2021/08/05 05:15:39;;;;;;;;;;;16.90;92.70;;;;;;5053167;28;20063;-75
2021/08/05 05:18:06;;;;;;;4.30;1.50;;;16.90;92.60;;;;;;5052883;28;19952;-75
2021/08/05 05:20:33;;;;;;;6.10;2.05;;;16.90;92.60;;;;;;5052544;28;20104;-76
2021/08/05 05:22:59;;;;;;;4.00;1.45;;;16.90;92.50;;;;;;5052420;28;20375;-75
2021/08/05 05:25:25;;;;;;;5.00;1.80;;;16.90;92.40;;;;;;5052278;28;20025;-76
2021/08/05 05:27:50;;;;;;;4.15;1.25;;;17.00;92.40;;;;;;5051028;28;20029;-75
2021/08/05 05:30:18;;;;;;;4.57;1.25;;;17.00;92.30;;;;;;5052242;28;20112;-77
2021/08/05 05:32:46;;;;;;;3.47;1.35;;;17.00;92.20;;;;;;5052433;28;20032;-77
2021/08/05 05:35:13;;;;;;;4.38;1.40;;;17.00;92.10;;;;;;5033790;28;20036;-76
2021/08/05 05:37:39;;;;;;;4.65;1.52;;;17.10;92.10;;;;;;5052327;28;20079;-75
2021/08/05 05:40:05;;;;;;;5.07;1.35;;;17.10;91.90;;;;;;5052280;28;20033;-75
2021/08/05 05:42:31;;;;;;;3.75;1.40;;;17.20;91.80;;;;;;5034202;28;20026;-76
2021/08/05 05:44:57;;;;;;;4.95;1.40;;;17.20;91.60;;;;;;5052031;28;20040;-76
2021/08/05 05:47:23;;;;;;;5.85;1.65;;;17.20;91.60;;;;;;5050833;28;20037;-76
2021/08/05 05:49:49;;;;;;;4.68;1.92;;;17.20;91.60;;;;;;5052084;28;20104;-76
2021/08/05 05:52:15;;;;;;;6.53;1.65;;;17.20;91.50;;;;;;5051944;28;20478;-74
2021/08/05 05:54:41;;;;;;;6.93;1.75;;;17.20;91.50;;;;;;5052409;28;20115;-77
2021/08/05 05:57:06;;;;;;;5.15;2.05;;;17.20;91.50;;;;;;5051918;28;20107;-75
2021/08/05 05:59:32;;;;;;;3.35;1.45;;;17.30;91.50;;;;;;5050610;28;20052;-74
2021/08/05 06:01:58;;;;;;;6.38;2.08;;;17.30;91.60;;;;;;5050488;28;20037;-76
2021/08/05 06:04:24;;;;;;;18.30;3.20;;;17.40;91.80;;;;;;5050456;28;20049;-76
2021/08/05 06:06:49;;;;;;;6.65;2.00;;;17.40;91.50;;;;;;5051849;28;20033;-77
2021/08/05 06:09:15;;;;;;;9.90;1.95;;;17.40;91.60;;;;;;5050475;28;20296;-76
2021/08/05 06:11:40;;;;;;;5.88;1.30;;;17.40;91.50;;;;;;5051533;28;20116;-76
2021/08/05 06:14:06;;;;;;;4.07;1.40;;;17.40;91.50;;;;;;5051460;28;20035;-75
2021/08/05 06:16:32;;;;;;;4.95;1.83;;;17.40;91.30;;;;;;5050331;28;20041;-75
2021/08/05 06:18:58;;;;;;;8.05;1.85;;;17.40;91.30;;;;;;5051065;28;20025;-76
2021/08/05 06:21:23;;;;;;;4.32;1.30;;;17.40;91.30;;;;;;5050075;28;20033;-74
2021/08/05 06:23:49;;;;;;;6.43;1.40;;;17.40;91.30;;;;;;5051457;28;20045;-75
2021/08/05 06:26:19;;;;;;;3.20;1.27;;;17.50;91.20;;;;;;5051393;28;20179;-75
2021/08/05 06:28:44;;;;;;;4.57;1.10;;;17.50;91.10;;;;;;5051457;28;20074;-75
2021/08/05 06:31:11;;;;;;;5.32;1.38;;;17.50;91.00;;;;;;5051162;28;20426;-75
2021/08/05 06:33:37;;;;;;;3.70;1.40;;;17.50;91.00;;;;;;5050037;28;20116;-75
2021/08/05 06:36:03;;;;;;;2.95;1.33;;;17.50;91.00;;;;;;5049687;28;20306;-76
2021/08/05 06:38:29;;;;;;;2.60;0.90;;;17.50;91.00;;;;;;5051266;28;20033;-75
2021/08/05 06:40:55;;;;;;;4.80;1.20;;;17.50;90.80;;;;;;5033130;28;20448;-76
2021/08/05 06:43:20;;;;;;;2.75;1.00;;;17.50;90.80;;;;;;5050031;28;20032;-76
2021/08/05 06:45:46;;;;;;;2.47;0.95;;;17.50;90.70;;;;;;5049840;28;20033;-74
2021/08/05 06:48:12;;;;;;;4.65;1.05;;;17.50;90.60;;;;;;5050907;28;20032;-75
2021/08/05 06:50:38;;;;;;;4.15;1.00;;;17.50;90.60;;;;;;5049355;28;20036;-75
2021/08/05 06:53:03;;;;;;;4.57;0.85;;;17.50;90.60;;;;;;5050953;28;20033;-75
2021/08/05 06:55:29;;;;;;;6.43;1.38;;;17.50;90.70;;;;;;5050690;28;20074;-74
2021/08/05 06:57:55;;;;;;;5.03;1.25;;;17.60;90.70;;;;;;5049558;28;20040;-76
2021/08/05 07:00:20;;;;;;;6.45;1.27;;;17.60;90.70;;;;;;5050787;28;20032;-77
2021/08/05 07:02:46;;;;;;;4.03;1.58;;;17.70;90.80;;;;;;5033161;28;20036;-76
2021/08/05 07:05:12;;;;;;;3.72;0.77;;;17.70;90.70;;;;;;5049202;28;20052;-74
2021/08/05 07:07:38;;;;;;;2.05;0.75;;;17.80;90.70;;;;;;5050658;28;20036;-75
2021/08/05 07:10:05;;;;;;;3.47;0.77;;;17.80;90.70;;;;;;5049546;28;20025;-75
2021/08/05 07:12:32;;;;;;;3.75;0.70;;;17.80;90.60;;;;;;5049113;28;20040;-74
2021/08/05 07:14:58;;;;;;;1.25;0.50;;;17.80;90.80;;;;;;5050630;28;20068;-76
2021/08/05 07:17:23;;;;;;;1.95;0.40;;;17.90;90.80;;;;;;5051385;28;20483;-75
2021/08/05 07:19:49;;;;;;;1.40;0.50;;;17.90;90.80;;;;;;5049567;28;20060;-76
2021/08/05 07:22:16;;;;;;;2.20;0.50;;;17.90;90.90;;;;;;5049307;28;20025;-76
2021/08/05 07:24:41;;;;;;;;;;;17.90;90.90;;;;;;5049920;28;20095;-75
2021/08/05 07:27:07;;;;;;;0.50;0.30;;;18.00;90.90;;;;;;5050683;28;19905;-75
2021/08/05 07:29:33;;;;;;;;;;;18.00;90.90;;;;;;5051011;28;20033;-75
2021/08/05 07:32:03;;;;;;;0.88;0.25;;;18.10;90.80;;;;;;5048955;28;19958;-77
2021/08/05 07:34:29;;;;;;;0.75;0.20;;;18.10;90.80;;;;;;5050556;28;20033;-75
2021/08/05 07:36:55;;;;;;;0.88;0.20;;;18.20;90.80;;;;;;5032829;28;20025;-76
2021/08/05 07:39:20;;;;;;;0.32;0.15;;;18.30;90.80;;;;;;5049147;28;20069;-77
2021/08/05 07:41:46;;;;;;;1.05;0.20;;;18.30;90.80;;;;;;5050377;28;20427;-74
2021/08/05 07:44:12;;;;;;;0.70;0.20;;;18.40;90.70;;;;;;5050310;28;20033;-76
2021/08/05 07:46:37;;;;;;;0.90;0.30;;;18.40;90.70;;;;;;5050557;28;20033;-78
2021/08/05 07:49:03;;;;;;;1.23;0.10;;;18.40;90.70;;;;;;5016103;28;20033;-77
2021/08/05 07:51:29;;;;;;;1.42;0.30;;;18.30;90.70;;;;;;5050264;28;20517;-75
2021/08/05 07:53:55;;;;;;;1.02;0.10;;;18.20;90.80;;;;;;5050268;28;20041;-74
2021/08/05 07:56:21;;;;;;;0.88;0.25;;;18.20;91.00;;;;;;5032636;28;20029;-74
2021/08/05 07:58:48;;;;;;;1.25;0.40;;;18.10;91.20;;;;;;5051794;28;20264;-77
2021/08/05 08:01:14;;;;;;;1.17;0.10;;;18.10;91.30;;;;;;5053913;28;20645;-76
2021/08/05 08:03:40;;;;;;;1.30;0.32;;;18.10;91.70;;;;;;5053615;28;20112;-76
2021/08/05 08:06:05;;;;;;;1.83;0.30;;;18.10;91.40;;;;;;5052595;28;20041;-75
2021/08/05 08:08:32;;;;;;;0.57;0.30;;;18.20;91.40;;;;;;5052390;28;20467;-76
2021/08/05 08:10:58;;;;;;;0.38;0.03;;;18.20;91.40;;;;;;5053646;28;20368;-77
2021/08/05 08:13:24;;;;;;;1.00;0.10;;;18.20;91.40;;;;;;5053870;28;20104;-76
2021/08/05 08:15:50;;;;;;;0.68;0.20;;;18.20;91.50;;;;;;5053773;28;20033;-75
2021/08/05 08:18:16;;;;;;;3.72;0.40;;;18.30;91.50;;;;;;5053697;28;20107;-75
2021/08/05 08:20:42;;;;;;;1.42;0.30;;;18.30;91.60;;;;;;5052045;28;20094;-75
2021/08/05 08:23:08;;;;;;;;;;;18.40;91.60;;;;;;5052750;28;20386;-75
2021/08/05 08:25:34;;;;;;;1.80;0.40;;;18.40;91.60;;;;;;5053223;28;19912;-77
2021/08/05 08:27:59;;;;;;;3.83;0.35;;;18.50;91.60;;;;;;5053490;28;20033;-76
2021/08/05 08:30:26;;;;;;;5.28;0.73;;;18.50;91.60;;;;;;5051743;28;20204;-77
2021/08/05 08:32:51;;;;;;;;;;;18.50;91.60;;;;;;5053364;28;20021;-77
2021/08/05 08:35:17;;;;;;;0.25;0.20;;;18.50;91.60;;;;;;5052943;28;19920;-76
2021/08/05 08:37:43;;;;;;;3.95;0.40;;;18.50;91.60;;;;;;5053134;28;20119;-74
2021/08/05 08:40:10;;;;;;;0.35;0.15;;;18.50;91.60;;;;;;5051544;28;20029;-77
2021/08/05 08:42:37;;;;;;;1.50;0.20;;;18.40;91.70;;;;;;5052781;28;20039;-77
2021/08/05 08:45:04;;;;;;;0.85;0.10;;;18.40;91.90;;;;;;5052826;28;20025;-75
2021/08/05 08:47:31;;;;;;;0.90;0.10;;;18.40;91.90;;;;;;5051150;28;20440;-77
2021/08/05 08:49:58;;;;;;;1.35;0.13;;;18.30;91.90;;;;;;5052818;28;20044;-75
2021/08/05 08:52:25;;;;;;;0.77;0.30;;;18.20;92.00;;;;;;5052676;28;20060;-76
2021/08/05 08:54:53;;;;;;;2.10;0.40;;;18.00;92.30;;;;;;5051424;28;20536;-76
2021/08/05 08:57:21;;;;;;;2.85;0.50;;;17.80;92.80;;;;;;5051184;28;20144;-76
2021/08/05 08:59:50;;;;;;;2.03;0.32;;;17.50;93.30;;;;;;5045646;28;20371;-75
2021/08/05 09:02:16;;;;;;;1.23;0.30;;;17.20;93.80;;;;;;5038253;28;20025;-76
2021/08/05 09:04:44;;;;;;;0.88;0.22;;;16.90;94.60;;;;;;5041794;28;20395;-76
2021/08/05 09:07:10;;;;;;;1.45;0.57;;;16.80;95.20;;;;;;5039653;28;20032;-76
2021/08/05 09:09:36;;;;;;;1.10;0.25;;;16.70;95.70;;;;;;5046990;28;20029;-75
2021/08/05 09:12:02;;;;;;;1.70;0.40;;;16.60;96.00;;;;;;5037961;28;20520;-76
2021/08/05 09:14:44;;;;;;;3.40;0.88;;;16.50;96.40;;;;;;5025586;28;20029;-75
2021/08/05 09:17:23;;;;;;;3.75;0.75;;;16.50;97.00;;;;;;5041647;28;20021;-77
2021/08/05 09:19:51;;;;;;;4.80;0.82;;;16.50;97.30;;;;;;5044252;28;20029;-75
2021/08/05 09:22:37;;;;;;;2.17;0.60;;;16.60;97.40;;;;;;5044068;28;20462;-75
2021/08/05 09:25:24;;;;;;;1.88;0.60;;;16.60;97.70;;;;;;5032756;28;20048;-76
2021/08/05 09:27:52;;;;;;;3.20;0.70;;;16.70;97.70;;;;;;5030304;28;20539;-76
2021/08/05 09:30:35;;;;;;;3.00;0.82;;;16.70;97.70;;;;;;5043938;28;20531;-75
2021/08/05 09:33:15;;;;;;;4.30;1.02;;;16.80;98.10;;;;;;5041624;28;20020;-77
2021/08/05 09:35:43;;;;;;;3.28;0.80;;;16.80;98.10;;;;;;5041039;28;20064;-76
2021/08/05 09:38:22;;;;;;;3.25;0.60;;;16.80;97.90;;;;;;5025404;28;20017;-76
2021/08/05 09:41:04;;;;;;;1.95;0.50;;;16.90;98.10;;;;;;5040303;28;20017;-77
2021/08/05 09:43:30;;;;;;;4.88;0.70;;;16.80;98.10;;;;;;5035963;28;20032;-76
2021/08/05 09:45:57;;;;;;;;;;;16.80;98.30;;;;;;5044010;28;20071;-75
2021/08/05 09:48:33;;;;;;;1.15;0.10;;;16.90;98.30;;;;;;5050546;28;19963;-75
2021/08/05 09:51:14;;;;;;;0.70;0.30;;;16.80;98.30;;;;;;5041696;28;20038;-76
2021/08/05 09:54:04;;;;;;;1.45;0.50;;;16.80;98.60;;;;;;5041556;28;20025;-76
2021/08/05 09:56:38;;;;;;;0.55;0.10;;;16.80;98.90;;;;;;5042831;28;20474;-76
2021/08/05 09:59:10;;;;;;;0.80;0.30;;;16.90;99.10;;;;;;5042436;28;20095;-79
2021/08/05 10:01:36;;;;;;;2.40;0.10;;;16.90;99.00;;;;;;5042011;28;20104;-74
2021/08/05 10:04:30;;;;;;;1.60;0.20;;;16.90;99.10;;;;;;5036593;28;20025;-75
2021/08/05 10:07:01;;;;;;;1.20;0.10;;;16.90;99.30;;;;;;5038570;28;20645;-76
2021/08/05 10:09:28;;;;;;;0.30;0.10;;;16.90;99.40;;;;;;5043413;28;20049;-77
2021/08/05 10:12:13;;;;;;;3.08;1.13;;;17.00;99.50;;;;;;5047825;28;20083;-75
2021/08/05 10:14:40;;;;;;;1.77;0.17;;;17.10;99.90;;;;;;5041468;28;20017;-77
2021/08/05 10:17:07;;;;;;;0.00;0.00;;;17.20;99.90;;;;;;5042183;28;20024;-75
2021/08/05 10:19:51;;;;;;;0.80;0.10;;;17.30;99.90;;;;;;5039215;28;20108;-76
2021/08/05 10:22:18;;;;;;;0.13;0.00;;;17.60;99.90;;;;;;5038088;28;20104;-76
2021/08/05 10:24:48;;;;;;;0.17;0.00;;;17.90;99.90;;;;;;5044984;28;20028;-76
2021/08/05 10:27:15;;;;;;;0.13;0.03;;;18.20;99.90;;;;;;5044050;28;20021;-78
2021/08/05 10:29:43;;;;;;;0.82;0.20;;;18.90;99.90;;;;;;5040853;28;20032;-73
2021/08/05 10:32:10;;;;;;;0.43;0.10;;;19.60;99.80;;;;;;5037031;28;20022;-77
2021/08/05 10:34:37;;;;;;;1.48;0.10;;;20.30;98.50;;;;;;5044666;28;20034;-74
2021/08/05 10:37:06;;;;;;;1.02;0.30;;;20.70;97.40;;;;;;5040788;28;20543;-76
2021/08/05 10:39:34;;;;;;;0.00;0.00;;;21.00;96.90;;;;;;5042913;28;20027;-76
2021/08/05 10:42:00;;;;;;;0.10;0.05;;;21.30;96.50;;;;;;5038619;28;20096;-77
2021/08/05 10:44:27;;;;;;;1.48;0.10;;;21.40;95.50;;;;;;5039011;28;20386;-77
2021/08/05 10:46:55;;;;;;;0.32;0.10;;;21.40;95.20;;;;;;5043572;28;20384;-77
2021/08/05 10:49:20;;;;;;;1.65;0.20;;;21.30;95.20;;;;;;5040706;28;20421;-76
2021/08/05 10:51:46;;;;;;;;;;;21.40;95.00;;;;;;5045765;28;20104;-77
2021/08/05 10:54:12;;;;;;;0.57;0.20;;;21.80;95.30;;;;;;5044113;28;19920;-75
2021/08/05 10:56:38;;;;;;;0.30;0.17;;;22.20;94.60;;;;;;5043291;28;20018;-75
2021/08/05 10:59:10;;;;;;;;;;;22.40;93.80;;;;;;5042609;28;20449;-76
2021/08/05 11:01:52;;;;;;;1.85;0.40;;;22.50;93.30;;;;;;5043690;28;19909;-79
2021/08/05 11:04:39;;;;;;;1.98;0.50;;;22.30;92.70;;;;;;5030586;28;20077;-78
2021/08/05 11:07:25;;;;;;;2.17;0.73;;;22.10;92.70;;;;;;5036847;28;20045;-76
2021/08/05 11:10:11;;;;;;;2.35;0.70;;;22.00;92.90;;;;;;5034214;28;20033;-76
2021/08/05 11:12:39;;;;;;;2.42;0.60;;;22.00;92.70;;;;;;5040280;28;20025;-77
2021/08/05 11:15:31;;;;;;;3.30;0.70;;;22.20;92.50;;;;;;5043960;28;20120;-77
2021/08/05 11:18:16;;;;;;;3.53;0.73;;;22.50;92.40;;;;;;5035961;28;20495;-77
2021/08/05 11:20:51;;;;;;;1.05;0.47;;;23.20;92.60;;;;;;5045170;28;20032;-76
2021/08/05 11:23:40;;;;;;;2.30;0.50;;;24.20;92.10;;;;;;5038464;28;20020;-73
2021/08/05 11:26:10;;;;;;;2.63;0.77;;;25.40;90.30;;;;;;5037780;28;20065;-76
2021/08/05 11:28:51;;;;;;;0.80;0.40;;;25.60;86.20;;;;;;5043039;28;20658;-78
2021/08/05 11:31:23;;;;;;;4.18;0.70;;;26.20;85.30;;;;;;5045538;28;20499;-75
2021/08/05 11:33:54;;;;;;;3.97;1.05;;;26.90;83.10;;;;;;5040068;28;20056;-75
2021/08/05 11:36:22;;;;;;;2.03;0.32;;;27.20;80.40;;;;;;5048008;28;20028;-76
2021/08/05 11:39:20;;;;;;;1.17;0.60;;;27.10;77.60;;;;;;5049664;28;20043;-76
2021/08/05 11:41:49;;;;;;;3.08;0.80;;;26.50;75.60;;;;;;5032758;28;20053;-73
2021/08/05 11:44:24;;;;;;;2.85;0.73;;;26.00;76.10;;;;;;5044261;28;20033;-75
2021/08/05 11:47:05;;;;;;;3.95;0.80;;;25.70;76.20;;;;;;5044133;28;20021;-76
2021/08/05 11:49:48;;;;;;;2.20;0.90;;;25.40;76.30;;;;;;5045294;28;20613;-78
2021/08/05 11:52:22;;;;;;;3.45;0.88;;;25.20;77.50;;;;;;5042325;28;20029;-79
2021/08/05 11:55:04;;;;;;;2.90;1.00;;;25.30;77.30;;;;;;5036766;28;20063;-78
2021/08/05 11:57:45;;;;;;;4.35;1.05;;;25.30;76.60;;;;;;5037008;28;20026;-77
2021/08/05 12:00:25;;;;;;;3.50;1.10;;;25.20;75.60;;;;;;5037155;28;20072;-79
2021/08/05 12:02:53;;;;;;;5.80;1.13;;;24.90;75.70;;;;;;5050049;28;20029;-72
2021/08/05 12:05:22;;;;;;;4.75;1.00;;;24.60;76.80;;;;;;5043502;28;20123;-75
2021/08/05 12:07:49;;;;;;;5.35;1.23;;;24.60;77.60;;;;;;5052791;28;20025;-75
2021/08/05 12:10:24;;;;;;;3.70;1.00;;;24.80;78.20;;;;;;5040860;28;20038;-75
2021/08/05 12:12:55;;;;;;;3.13;1.20;;;25.10;77.10;;;;;;5040911;28;20416;-76
2021/08/05 12:15:34;;;;;;;6.25;1.67;;;25.20;76.60;;;;;;5046122;28;20037;-76
2021/08/05 12:18:16;;;;;;;3.67;1.13;;;25.60;76.40;;;;;;5045931;28;20472;-78
2021/08/05 12:20:53;;;;;;;5.97;1.50;;;26.10;74.90;;;;;;5038909;28;20514;-75
2021/08/05 12:23:36;;;;;;;6.30;1.42;;;26.30;73.20;;;;;;5042593;28;20024;-76
2021/08/05 12:28:37;;;;;;;5.07;1.65;;;25.90;71.80;;;;;;5055021;28;20479;-75
2021/08/05 12:31:05;;;;;;;4.22;1.38;;;25.70;72.70;;;;;;5053645;28;20379;-74
2021/08/05 12:33:36;;;;;;;5.82;1.85;;;25.60;73.70;;;;;;5054427;28;20032;-75
2021/08/05 12:36:19;;;;;;;4.75;1.33;;;25.80;74.70;;;;;;5054784;28;20478;-75
2021/08/05 12:38:54;;;;;;;3.33;1.33;;;26.50;74.10;;;;;;5050128;28;20022;-76
2021/08/05 12:41:35;;;;;;;3.22;1.10;;;27.20;73.00;;;;;;5044007;28;20036;-76
2021/08/05 12:44:23;;;;;;;3.83;1.25;;;27.30;70.60;;;;;;5041485;28;20049;-76
2021/08/05 12:46:51;;;;;;;4.72;1.20;;;26.90;69.80;;;;;;5043199;28;20024;-77
2021/08/05 12:49:18;;;;;;;6.95;1.80;;;26.40;69.40;;;;;;5036650;28;20447;-76
2021/08/05 12:51:45;;;;;;;2.67;0.95;;;25.90;70.50;;;;;;5045762;28;20067;-75
2021/08/05 12:54:21;;;;;;;2.30;0.90;;;25.20;72.00;;;;;;5038305;28;20032;-76
2021/08/05 12:56:50;;;;;;;4.35;1.40;;;24.40;74.30;;;;;;5040764;28;20021;-77
2021/08/05 12:59:17;;;;;;;4.28;2.00;;;23.90;75.70;;;;;;5046247;28;20036;-78
2021/08/05 13:01:43;;;;;;;8.02;2.97;;;23.50;77.50;;;;;;5047225;28;20404;-75